Halleck, Nevada
Current Conditions -  °F | °C
As of 10:31 PM on Thursday 18 Dec 2014 (Local Time) from KEKO Reporting Station
Few Clouds Few Clouds  
Wind Chill: 25°   Ceiling: Unl
Heat Index: 25°   Visibility: 9mi
Dew Point: 22°   Wind: 0mph
Humidity: 88%   Direction: NA
Pressure: 30.15"   Gusts: NA
Location:  40.95°N, 115.45°W
Report Text: KEKO 190631Z AUTO 00000KT 9SM FEW001 M04/M06 A3015 RMK AO2 I1000 T10391056
Loading
Personal Weather Stations






























Interactive Weather Map New forecast layout! Learn more

10-Day Weather Forecast

Advertisements
Track Severe Weather on mobile